Terminal Aerodrome Forecast
Issued by NWS Paducah, KY

Home | Current Version | Previous Version | Text Only | Print | Product List | Glossary On
Versions: 1 2 3 4 5 6 7 8 9 10 11 12 13 14 15 16 17 18 19 20 21
000
FTUS43 KPAH 151100 RRA
TAFEVV
TAF
KEVV 151140Z 1512/1612 13005KT 5SM BR OVC012
     FM151630 15012KT P6SM SCT008 BKN020 OVC080
     FM151745 15008KT P6SM -SHRA BKN006 OVC019
     FM151830 15012KT 4SM BR VCSH BKN012 OVC023
     FM160300 21011G16KT 2SM BR OVC018
     FM160600 23008KT P6SM OVC016=

USA.gov is the U.S. government's official web portal to all federal, state and local government web resources and services.